Time;durP1;ratioP1;P1;durP2;ratioP2;P2;SDS_P1;SDS_P2;PMS_P1;PMS_P2;Temp;Humidity;BMP_temperature;BMP_pressure;BME280_temperature;BME280_humidity;BME280_pressure;Samples;Min_cycle;Max_cycle;Signal;HPM_P1;HPM_P2
2022/01/15 00:00:06;;;;;;;6.73;5.03;;;2.80;99.90;;;;;;5072093;28;20527;-72
2022/01/15 00:02:32;;;;;;;7.30;6.07;;;2.90;99.90;;;;;;5071317;28;20180;-73
2022/01/15 00:04:58;;;;;;;6.87;4.90;;;2.80;99.90;;;;;;5054102;28;20190;-72
2022/01/15 00:07:23;;;;;;;4.17;3.83;;;2.80;99.90;;;;;;5072092;28;20645;-72
2022/01/15 00:09:50;;;;;;;3.13;2.83;;;2.80;99.90;;;;;;5072082;28;20183;-73
2022/01/15 00:12:16;;;;;;;4.63;4.27;;;2.80;99.90;;;;;;5071647;28;20257;-72
2022/01/15 00:14:42;;;;;;;5.23;4.73;;;2.80;99.90;;;;;;5054459;28;20279;-73
2022/01/15 00:17:18;;;;;;;4.50;4.13;;;2.80;99.90;;;;;;5054992;28;20175;-73
2022/01/15 00:19:43;;;;;;;10.83;10.00;;;2.70;99.90;;;;;;5066265;28;20217;-73
2022/01/15 00:22:15;;;;;;;10.20;8.43;;;2.70;99.90;;;;;;5079686;28;20206;-73
2022/01/15 00:24:42;;;;;;;8.37;6.13;;;2.70;99.90;;;;;;5054963;28;20207;-74
2022/01/15 00:27:09;;;;;;;7.17;6.50;;;2.70;99.90;;;;;;5078395;28;20256;-73
2022/01/15 00:29:35;;;;;;;2.77;2.60;;;2.70;99.90;;;;;;5077985;28;20186;-73
2022/01/15 00:32:01;;;;;;;14.23;7.37;;;2.70;99.90;;;;;;5078016;28;20282;-74
2022/01/15 00:34:27;;;;;;;15.47;9.43;;;2.70;99.90;;;;;;5076252;28;20198;-73
2022/01/15 00:36:53;;;;;;;7.60;5.37;;;2.70;99.90;;;;;;5058484;28;20191;-74
2022/01/15 00:39:19;;;;;;;17.13;6.90;;;2.70;99.90;;;;;;5075715;28;20222;-74
2022/01/15 00:41:45;;;;;;;8.23;7.40;;;2.60;99.90;;;;;;5058728;28;20651;-74
2022/01/15 00:44:10;;;;;;;11.80;6.47;;;2.60;99.90;;;;;;5074789;28;20607;-73
2022/01/15 00:46:36;;;;;;;4.40;4.00;;;2.60;99.90;;;;;;5075064;28;20558;-74
2022/01/15 00:49:02;;;;;;;4.50;4.23;;;2.60;99.90;;;;;;5074936;28;20267;-74
2022/01/15 00:51:28;;;;;;;5.53;5.07;;;2.60;99.90;;;;;;5067283;28;20188;-74
2022/01/15 00:53:53;;;;;;;12.20;4.27;;;2.60;99.90;;;;;;5094685;28;20207;-74
2022/01/15 00:56:19;;;;;;;9.10;5.50;;;2.60;99.90;;;;;;5089508;28;20189;-74
2022/01/15 00:58:44;;;;;;;6.80;6.17;;;2.60;99.90;;;;;;5074595;28;20204;-74
2022/01/15 01:01:10;;;;;;;6.73;5.30;;;2.60;99.90;;;;;;5074554;28;20179;-74
2022/01/15 01:03:36;;;;;;;10.47;4.10;;;2.60;99.90;;;;;;5116519;22;20228;-74
2022/01/15 01:06:01;;;;;;;8.53;5.73;;;2.60;99.90;;;;;;5054938;28;20182;-74
2022/01/15 01:08:27;;;;;;;11.43;5.50;;;2.70;99.90;;;;;;5052952;28;20608;-74
2022/01/15 01:10:56;;;;;;;3.30;3.13;;;2.60;99.90;;;;;;5074383;28;20192;-74
2022/01/15 01:13:41;;;;;;;10.43;6.43;;;2.60;99.90;;;;;;5073965;28;20268;-73
2022/01/15 01:24:10;;;;;;;3.83;3.63;;;2.60;99.90;;;;;;5055086;28;20189;-72
2022/01/15 01:26:45;;;;;;;9.23;4.63;;;2.50;99.90;;;;;;5036979;28;20237;-73
2022/01/15 01:34:26;;;;;;;2.20;2.07;;;2.50;99.90;;;;;;5054368;28;20201;-72
2022/01/15 01:39:31;;;;;;;10.37;3.93;;;2.30;99.90;;;;;;5054887;28;20199;-72
2022/01/15 01:44:41;;;;;;;6.50;3.07;;;2.20;99.90;;;;;;5055756;28;20284;-72
2022/01/15 01:47:26;;;;;;;4.63;4.23;;;2.20;99.90;;;;;;5058207;28;20177;-73
2022/01/15 01:49:51;;;;;;;4.73;3.80;;;2.20;99.90;;;;;;5043302;28;20178;-73
2022/01/15 01:52:17;;;;;;;3.33;3.23;;;2.10;99.90;;;;;;5035753;28;20179;-73
2022/01/15 01:54:43;;;;;;;3.00;2.80;;;2.10;99.90;;;;;;5053903;28;20665;-73
2022/01/15 01:57:08;;;;;;;18.33;6.07;;;2.10;99.90;;;;;;5035504;28;20189;-73
2022/01/15 01:59:36;;;;;;;2.00;1.90;;;2.10;99.90;;;;;;5053567;28;20778;-73
2022/01/15 02:02:03;;;;;;;3.50;2.37;;;2.10;99.90;;;;;;5053950;28;20177;-73
2022/01/15 02:04:28;;;;;;;2.63;2.10;;;2.00;99.90;;;;;;5035688;28;20217;-73
2022/01/15 02:06:54;;;;;;;5.10;3.90;;;2.00;99.90;;;;;;5053855;28;20644;-73
2022/01/15 02:09:21;;;;;;;9.53;7.17;;;2.00;99.90;;;;;;5053655;28;20173;-73
2022/01/15 02:11:47;;;;;;;1.13;1.13;;;2.00;99.90;;;;;;5053204;28;20578;-73
2022/01/15 02:14:28;;;;;;;6.73;6.07;;;2.00;99.90;;;;;;5053556;28;20205;-73
2022/01/15 02:16:54;;;;;;;1.93;1.50;;;2.00;99.90;;;;;;5053600;28;20181;-73
2022/01/15 02:19:19;;;;;;;3.60;3.13;;;2.00;99.90;;;;;;5053129;28;20238;-73
2022/01/15 02:24:16;;;;;;;1.57;1.53;;;2.00;99.90;;;;;;5073098;28;20197;-73
2022/01/15 02:26:42;;;;;;;13.17;4.37;;;2.00;99.90;;;;;;5073026;28;20516;-73
2022/01/15 02:29:09;;;;;;;7.13;5.10;;;2.00;99.90;;;;;;5055533;28;20208;-73
2022/01/15 02:31:36;;;;;;;4.50;3.87;;;1.90;99.90;;;;;;5073501;28;20181;-73
2022/01/15 02:34:04;;;;;;;5.80;4.83;;;1.90;99.90;;;;;;5052807;28;20568;-73
2022/01/15 02:36:35;;;;;;;10.40;6.10;;;1.90;99.90;;;;;;5053576;28;20228;-73
2022/01/15 02:39:01;;;;;;;7.60;4.80;;;1.80;99.90;;;;;;5034942;28;20200;-73
2022/01/15 02:41:32;;;;;;;3.03;2.83;;;1.80;99.90;;;;;;5053381;28;20180;-72
2022/01/15 02:44:00;;;;;;;2.00;1.90;;;1.80;99.90;;;;;;5053990;28;20201;-73
2022/01/15 02:48:57;;;;;;;5.23;4.70;;;1.80;99.90;;;;;;5053299;28;20173;-73
2022/01/15 02:51:25;;;;;;;5.43;3.90;;;1.80;99.90;;;;;;5053053;28;20189;-72
2022/01/15 02:53:57;;;;;;;4.43;4.10;;;1.70;99.90;;;;;;5052781;28;20207;-72
2022/01/15 02:56:32;;;;;;;3.60;3.37;;;1.60;99.90;;;;;;5067545;28;20181;-73
2022/01/15 02:58:58;;;;;;;1.87;1.77;;;1.60;99.90;;;;;;5035551;28;20201;-72
2022/01/15 03:01:23;;;;;;;2.20;2.00;;;1.50;99.90;;;;;;5035362;28;20181;-72
2022/01/15 03:03:49;;;;;;;2.03;1.87;;;1.50;99.90;;;;;;5052791;28;20215;-73
2022/01/15 03:06:17;;;;;;;0.90;0.87;;;1.50;99.90;;;;;;5035500;28;20173;-72
2022/01/15 03:08:45;;;;;;;1.97;1.90;;;1.50;99.90;;;;;;5034470;28;20224;-73
2022/01/15 03:11:12;;;;;;;8.03;3.43;;;1.50;99.90;;;;;;5052622;28;20185;-71
2022/01/15 03:13:39;;;;;;;1.77;1.73;;;1.50;99.90;;;;;;5059075;28;20228;-73
2022/01/15 03:16:06;;;;;;;4.20;3.90;;;1.40;99.90;;;;;;5073419;28;20173;-72
2022/01/15 03:18:32;;;;;;;8.87;1.53;;;1.40;99.90;;;;;;5062464;28;20197;-72
2022/01/15 03:20:57;;;;;;;15.17;6.30;;;1.40;99.90;;;;;;5059042;28;20184;-72
2022/01/15 03:23:23;;;;;;;4.23;3.83;;;1.40;99.90;;;;;;5042909;28;20188;-74
2022/01/15 03:25:48;;;;;;;6.70;3.87;;;1.40;99.90;;;;;;5075071;28;20693;-74
2022/01/15 03:28:14;;;;;;;3.73;2.10;;;1.40;99.90;;;;;;5074987;28;20215;-72
2022/01/15 03:30:40;;;;;;;3.20;1.70;;;1.40;99.90;;;;;;5056349;28;20184;-73
2022/01/15 03:33:06;;;;;;;4.80;2.23;;;1.40;99.90;;;;;;5058201;28;20197;-73
2022/01/15 03:35:32;;;;;;;7.60;3.50;;;1.40;99.90;;;;;;5052917;28;20572;-72
2022/01/15 03:37:58;;;;;;;1.43;1.43;;;1.50;99.90;;;;;;5052307;28;20205;-72
2022/01/15 03:40:24;;;;;;;6.50;2.30;;;1.40;99.90;;;;;;5052833;28;20199;-73
2022/01/15 03:42:50;;;;;;;2.10;2.00;;;1.40;99.90;;;;;;5034018;28;20219;-73
2022/01/15 03:45:16;;;;;;;1.23;1.17;;;1.50;99.90;;;;;;5034153;28;20203;-73
2022/01/15 03:47:46;;;;;;;6.70;6.13;;;1.50;99.90;;;;;;5052207;28;20540;-73
2022/01/15 03:50:13;;;;;;;4.17;3.70;;;1.40;99.90;;;;;;5035409;28;20543;-72
2022/01/15 03:52:39;;;;;;;6.43;2.37;;;1.50;99.90;;;;;;5054279;28;20576;-73
2022/01/15 03:55:06;;;;;;;7.73;5.70;;;1.50;99.90;;;;;;5052065;28;20260;-72
2022/01/15 03:57:32;;;;;;;5.37;4.87;;;1.50;99.90;;;;;;5052200;28;20184;-72
2022/01/15 03:59:59;;;;;;;17.63;6.23;;;1.40;99.90;;;;;;5052629;28;20177;-73
2022/01/15 04:02:24;;;;;;;1.37;1.37;;;1.40;99.90;;;;;;5057677;28;20173;-72
2022/01/15 04:04:50;;;;;;;3.07;2.90;;;1.40;99.90;;;;;;5057610;28;20263;-73
2022/01/15 04:07:15;;;;;;;2.40;2.17;;;1.40;99.90;;;;;;5056087;28;20214;-73
2022/01/15 04:09:41;;;;;;;5.60;5.30;;;1.40;99.90;;;;;;5056001;28;20191;-73
2022/01/15 04:12:07;;;;;;;11.37;0.90;;;1.40;99.90;;;;;;5056033;28;20177;-72
2022/01/15 04:14:32;;;;;;;2.57;2.47;;;1.40;99.90;;;;;;5056448;28;20231;-72
2022/01/15 04:16:58;;;;;;;16.10;7.07;;;1.40;99.90;;;;;;5037979;28;20177;-72
2022/01/15 04:19:24;;;;;;;7.80;4.40;;;1.40;99.90;;;;;;5055386;28;20205;-72
2022/01/15 04:21:50;;;;;;;2.80;2.23;;;1.30;99.90;;;;;;5059959;28;20173;-72
2022/01/15 04:24:17;;;;;;;13.73;3.27;;;1.30;99.90;;;;;;5069455;28;20760;-72
2022/01/15 04:26:43;;;;;;;6.83;5.57;;;1.30;99.90;;;;;;5075632;28;20678;-72
2022/01/15 04:29:08;;;;;;;2.63;1.80;;;1.30;99.90;;;;;;5075785;28;20180;-73
2022/01/15 04:31:47;;;;;;;2.80;2.57;;;1.30;99.90;;;;;;5071258;28;20173;-73
2022/01/15 04:34:18;;;;;;;2.57;2.37;;;1.30;99.90;;;;;;5055469;28;20201;-73
2022/01/15 04:36:44;;;;;;;1.93;1.83;;;1.30;99.90;;;;;;5056311;28;20545;-72
2022/01/15 04:39:11;;;;;;;5.27;4.37;;;1.30;99.90;;;;;;5055475;28;20205;-72
2022/01/15 04:41:36;;;;;;;3.67;3.33;;;1.20;99.90;;;;;;5056306;28;20174;-71
2022/01/15 04:44:04;;;;;;;1.00;1.00;;;1.20;99.90;;;;;;5040281;28;20254;-72
2022/01/15 04:46:30;;;;;;;4.27;3.87;;;1.20;99.90;;;;;;5039810;28;20179;-73
2022/01/15 04:48:55;;;;;;;16.87;4.53;;;1.30;99.90;;;;;;5056091;28;20233;-72
2022/01/15 04:51:21;;;;;;;6.93;4.87;;;1.20;99.90;;;;;;5055392;28;20211;-72
2022/01/15 04:53:46;;;;;;;4.07;3.87;;;1.20;99.90;;;;;;5055352;28;20212;-73
2022/01/15 04:56:12;;;;;;;8.47;4.67;;;1.20;99.90;;;;;;5055379;28;20189;-72
2022/01/15 04:58:37;;;;;;;1.23;1.23;;;1.20;99.90;;;;;;5055343;28;20197;-72
2022/01/15 05:01:03;;;;;;;2.17;1.67;;;1.20;99.90;;;;;;5054855;28;20174;-72
2022/01/15 05:03:28;;;;;;;1.27;1.27;;;1.20;99.90;;;;;;5054264;28;20220;-71
2022/01/15 05:05:54;;;;;;;13.73;7.23;;;1.10;99.90;;;;;;5054753;28;20719;-72
2022/01/15 05:08:19;;;;;;;4.33;1.73;;;1.20;99.90;;;;;;5054848;28;20188;-72
2022/01/15 05:10:47;;;;;;;14.13;5.60;;;1.20;99.90;;;;;;5054258;28;20189;-71
2022/01/15 05:13:19;;;;;;;3.17;2.90;;;1.10;99.90;;;;;;5054373;28;20239;-72
2022/01/15 05:15:45;;;;;;;11.77;5.70;;;1.10;99.90;;;;;;5054635;28;20184;-72
2022/01/15 05:18:11;;;;;;;6.87;3.40;;;1.20;99.90;;;;;;5054253;28;20201;-72
2022/01/15 05:20:41;;;;;;;7.87;5.97;;;1.20;99.90;;;;;;5058413;28;20204;-72
2022/01/15 05:23:06;;;;;;;6.50;5.90;;;1.20;99.90;;;;;;5070362;28;20306;-73
2022/01/15 05:25:32;;;;;;;2.17;2.07;;;1.20;99.90;;;;;;5074153;28;20263;-72
2022/01/15 05:27:58;;;;;;;6.33;2.97;;;1.20;99.90;;;;;;5056039;28;20663;-72
2022/01/15 05:30:23;;;;;;;5.43;5.00;;;1.20;99.90;;;;;;5074291;28;20180;-72
2022/01/15 05:32:49;;;;;;;5.43;5.07;;;1.20;99.90;;;;;;5059513;28;20567;-73
2022/01/15 05:35:14;;;;;;;2.17;2.07;;;1.10;99.90;;;;;;5053714;28;20284;-72
2022/01/15 05:37:40;;;;;;;11.97;4.03;;;1.10;99.90;;;;;;5053720;28;20196;-73
2022/01/15 05:40:06;;;;;;;2.57;2.33;;;1.10;99.90;;;;;;5053743;28;20247;-72
2022/01/15 05:42:32;;;;;;;5.47;5.10;;;1.10;99.90;;;;;;5053361;28;20193;-73
2022/01/15 05:44:57;;;;;;;2.07;1.97;;;1.10;99.90;;;;;;5035763;28;20197;-73
2022/01/15 05:47:23;;;;;;;1.33;1.27;;;1.00;99.90;;;;;;5053614;28;20205;-73
2022/01/15 05:49:49;;;;;;;13.30;2.53;;;1.00;99.90;;;;;;5053877;28;20185;-73
2022/01/15 05:52:14;;;;;;;3.03;2.83;;;1.00;99.90;;;;;;5035457;28;20181;-73
2022/01/15 05:54:40;;;;;;;24.70;1.53;;;1.00;99.90;;;;;;5053571;28;20212;-73
2022/01/15 05:57:06;;;;;;;9.37;2.20;;;1.00;99.90;;;;;;5035478;28;20607;-73
2022/01/15 05:59:31;;;;;;;4.50;3.40;;;1.00;99.90;;;;;;5052957;28;20211;-72
2022/01/15 06:01:57;;;;;;;1.30;1.30;;;1.10;99.90;;;;;;5056946;28;20189;-73
2022/01/15 06:04:22;;;;;;;5.13;4.43;;;1.00;99.90;;;;;;5057890;28;20213;-72
2022/01/15 06:06:48;;;;;;;4.80;4.40;;;1.00;99.90;;;;;;5076068;28;20176;-72
2022/01/15 06:09:13;;;;;;;8.77;2.20;;;1.00;99.90;;;;;;5073860;28;20556;-73
2022/01/15 06:11:40;;;;;;;3.87;1.80;;;1.00;99.90;;;;;;5073875;28;20658;-72
2022/01/15 06:14:05;;;;;;;1.93;1.83;;;1.00;99.90;;;;;;5073474;28;20693;-73
2022/01/15 06:16:31;;;;;;;5.97;5.10;;;1.00;99.90;;;;;;5073869;28;20184;-73
2022/01/15 06:18:57;;;;;;;12.00;3.67;;;1.00;99.90;;;;;;5036405;28;20190;-72
2022/01/15 06:21:22;;;;;;;0.83;0.83;;;1.00;99.90;;;;;;5031755;28;20711;-72
2022/01/15 06:23:48;;;;;;;11.70;8.07;;;1.00;99.90;;;;;;5045658;28;20284;-73
2022/01/15 06:26:14;;;;;;;1.30;1.30;;;1.00;99.90;;;;;;5060924;28;20184;-72
2022/01/15 06:28:40;;;;;;;4.33;3.27;;;1.00;99.90;;;;;;5077106;28;20185;-72
2022/01/15 06:31:05;;;;;;;1.33;1.30;;;1.00;99.90;;;;;;5074803;28;20187;-73
2022/01/15 06:33:32;;;;;;;12.83;6.07;;;1.00;99.90;;;;;;5053567;28;20194;-73
2022/01/15 06:35:58;;;;;;;4.37;4.13;;;1.00;99.90;;;;;;5036168;28;20190;-73
2022/01/15 06:38:23;;;;;;;4.50;4.23;;;1.00;99.90;;;;;;5035478;28;20724;-72
2022/01/15 06:40:49;;;;;;;0.60;0.60;;;1.00;99.90;;;;;;5053887;28;20182;-72
2022/01/15 06:43:14;;;;;;;3.23;3.03;;;1.00;99.90;;;;;;5052684;28;20174;-73
2022/01/15 06:45:40;;;;;;;0.87;0.87;;;1.00;99.90;;;;;;5053499;28;20193;-72
2022/01/15 06:48:06;;;;;;;3.93;3.73;;;1.00;99.90;;;;;;5053357;28;20184;-72
2022/01/15 06:50:32;;;;;;;4.93;3.53;;;1.00;99.90;;;;;;5035418;28;20199;-73
2022/01/15 06:52:58;;;;;;;1.83;1.67;;;1.00;99.90;;;;;;5037484;28;20189;-71
2022/01/15 06:55:24;;;;;;;2.20;2.10;;;1.00;99.90;;;;;;5055961;28;20189;-72
2022/01/15 06:57:49;;;;;;;0.93;0.93;;;1.00;99.90;;;;;;5053232;28;20610;-73
2022/01/15 07:00:16;;;;;;;2.43;2.23;;;1.00;99.90;;;;;;5053323;28;20205;-73
2022/01/15 07:02:42;;;;;;;3.33;3.13;;;1.00;99.90;;;;;;5052574;28;20639;-72
2022/01/15 07:05:08;;;;;;;1.07;1.03;;;1.00;99.90;;;;;;5034155;28;20217;-72
2022/01/15 07:07:35;;;;;;;1.80;1.70;;;1.00;99.90;;;;;;5034127;28;20250;-73
2022/01/15 07:12:30;;;;;;;4.87;2.33;;;1.10;99.90;;;;;;5085425;22;20779;-77
2022/01/15 07:14:55;;;;;;;5.00;2.67;;;1.00;99.90;;;;;;5070218;28;20267;-77
2022/01/15 07:17:21;;;;;;;4.33;1.20;;;1.10;99.90;;;;;;5071419;28;20204;-78
2022/01/15 07:19:51;;;;;;;1.67;1.63;;;1.10;99.90;;;;;;5062937;28;20227;-76
2022/01/15 07:22:16;;;;;;;1.83;1.73;;;1.10;99.90;;;;;;5069610;28;20200;-77
2022/01/15 07:24:42;;;;;;;1.77;1.67;;;1.10;99.90;;;;;;5053419;28;20177;-77
2022/01/15 07:27:07;;;;;;;1.07;1.03;;;1.10;99.90;;;;;;5051506;28;20252;-76
2022/01/15 07:29:36;;;;;;;3.40;3.03;;;1.10;99.90;;;;;;5051832;28;20266;-77
2022/01/15 07:32:02;;;;;;;2.30;2.20;;;1.10;99.90;;;;;;5060445;28;20291;-77
2022/01/15 07:34:28;;;;;;;4.37;4.17;;;1.10;99.90;;;;;;5072381;28;20274;-76
2022/01/15 07:36:59;;;;;;;1.27;1.23;;;1.10;99.90;;;;;;5054134;28;20181;-77
2022/01/15 07:39:26;;;;;;;3.47;2.43;;;1.10;99.90;;;;;;5071839;28;20208;-77
2022/01/15 07:41:52;;;;;;;3.27;3.03;;;1.10;99.90;;;;;;5053641;28;20281;-77
2022/01/15 07:44:18;;;;;;;2.33;2.13;;;1.20;99.90;;;;;;5053496;28;20210;-77
2022/01/15 07:46:44;;;;;;;2.50;1.60;;;1.20;99.90;;;;;;5071277;28;20176;-77
2022/01/15 07:49:10;;;;;;;2.57;2.47;;;1.20;99.90;;;;;;5071111;28;20200;-78
2022/01/15 07:51:35;;;;;;;4.70;4.23;;;1.20;99.90;;;;;;5071552;28;20196;-77
2022/01/15 07:54:01;;;;;;;2.03;1.93;;;1.20;99.90;;;;;;5071571;28;20183;-76
2022/01/15 07:56:26;;;;;;;2.27;2.07;;;1.20;99.90;;;;;;5053261;28;20208;-77
2022/01/15 07:58:52;;;;;;;1.37;1.27;;;1.20;99.90;;;;;;5071107;28;20200;-77
2022/01/15 08:01:18;;;;;;;3.53;2.00;;;1.20;99.90;;;;;;5070612;28;20231;-75
2022/01/15 08:03:44;;;;;;;2.40;1.73;;;1.30;99.90;;;;;;5053005;28;20183;-77
2022/01/15 08:06:11;;;;;;;18.23;4.03;;;1.20;99.90;;;;;;5070934;28;20260;-76
2022/01/15 08:08:37;;;;;;;1.10;1.10;;;1.20;99.90;;;;;;5070948;28;20183;-77
2022/01/15 08:11:03;;;;;;;6.27;3.43;;;1.20;99.90;;;;;;5070613;28;20212;-76
2022/01/15 08:13:31;;;;;;;2.97;2.77;;;1.20;99.90;;;;;;5046886;28;20186;-76
2022/01/15 08:15:57;;;;;;;1.30;1.20;;;1.20;99.90;;;;;;5050897;28;20682;-76
2022/01/15 08:18:23;;;;;;;2.90;2.77;;;1.30;99.90;;;;;;5061125;28;20272;-77
2022/01/15 08:20:50;;;;;;;3.00;2.43;;;1.30;99.90;;;;;;5070345;28;20694;-77
2022/01/15 08:23:15;;;;;;;1.97;1.87;;;1.30;99.90;;;;;;5069362;28;20195;-78
2022/01/15 08:25:41;;;;;;;1.17;1.07;;;1.30;99.90;;;;;;5070710;28;20668;-77
2022/01/15 08:28:07;;;;;;;1.30;1.27;;;1.30;99.90;;;;;;5052803;28;20188;-77
2022/01/15 08:30:32;;;;;;;2.07;2.00;;;1.40;99.90;;;;;;5050178;28;20571;-76
2022/01/15 08:32:58;;;;;;;2.50;2.37;;;1.40;99.90;;;;;;5063787;28;20185;-76
2022/01/15 08:35:24;;;;;;;2.10;2.00;;;1.40;99.90;;;;;;5063713;28;20943;-77
2022/01/15 08:37:49;;;;;;;6.17;1.20;;;1.40;99.90;;;;;;5070598;28;20215;-77
2022/01/15 08:40:16;;;;;;;2.77;2.13;;;1.50;99.90;;;;;;5070641;28;20259;-77
2022/01/15 08:42:42;;;;;;;0.70;0.70;;;1.50;99.90;;;;;;5070320;28;20259;-76
2022/01/15 08:45:09;;;;;;;4.77;4.37;;;1.50;99.90;;;;;;5070664;28;20199;-76
2022/01/15 08:47:35;;;;;;;2.70;2.50;;;1.50;99.90;;;;;;5073597;28;20176;-77
2022/01/15 08:50:01;;;;;;;2.27;2.20;;;1.50;99.90;;;;;;5074364;28;20180;-78
2022/01/15 08:52:27;;;;;;;1.73;0.80;;;1.60;99.90;;;;;;5074049;28;20578;-77
2022/01/15 08:54:53;;;;;;;0.30;0.30;;;1.60;99.90;;;;;;5074448;28;20177;-76
2022/01/15 08:57:18;;;;;;;2.87;2.37;;;1.60;99.90;;;;;;5074066;28;20172;-77
2022/01/15 08:59:44;;;;;;;9.87;2.50;;;1.60;99.90;;;;;;5074359;28;20671;-76
2022/01/15 09:02:10;;;;;;;0.70;0.70;;;1.70;99.90;;;;;;5073896;28;20737;-76
2022/01/15 09:04:36;;;;;;;1.60;1.50;;;1.70;99.90;;;;;;5056734;28;20185;-76
2022/01/15 09:07:03;;;;;;;5.70;3.03;;;1.70;99.90;;;;;;5050688;28;20254;-76
2022/01/15 09:09:28;;;;;;;6.73;4.73;;;1.70;99.90;;;;;;5054086;28;20181;-74
2022/01/15 09:11:54;;;;;;;2.40;2.30;;;1.70;99.90;;;;;;5053078;28;20228;-74
2022/01/15 09:14:19;;;;;;;6.27;4.30;;;1.70;99.90;;;;;;5048133;28;20559;-76
2022/01/15 09:16:45;;;;;;;2.30;2.20;;;1.70;99.90;;;;;;5074031;28;20191;-75
2022/01/15 09:19:11;;;;;;;0.83;0.83;;;1.60;99.90;;;;;;5074103;28;20196;-76
2022/01/15 09:21:36;;;;;;;2.57;2.40;;;1.70;99.90;;;;;;5055829;28;20197;-75
2022/01/15 09:24:02;;;;;;;1.53;1.50;;;1.70;99.90;;;;;;5073737;28;20761;-76
2022/01/15 09:31:57;;;;;;;3.57;3.33;;;1.70;99.90;;;;;;5053800;28;20292;-76
2022/01/15 09:34:23;;;;;;;3.33;2.57;;;1.70;99.90;;;;;;5053172;28;20260;-75
2022/01/15 09:36:48;;;;;;;0.47;0.47;;;1.70;99.90;;;;;;5053755;28;20262;-76
2022/01/15 09:39:14;;;;;;;4.30;2.30;;;1.80;99.90;;;;;;5053316;28;20208;-76
2022/01/15 09:41:46;;;;;;;3.07;1.53;;;1.80;99.90;;;;;;5053254;28;20549;-75
2022/01/15 09:44:13;;;;;;;0.53;0.53;;;1.80;99.90;;;;;;5053405;28;20182;-75
2022/01/15 09:46:39;;;;;;;2.70;2.50;;;1.80;99.90;;;;;;5053319;28;20188;-75
2022/01/15 09:49:07;;;;;;;0.13;0.13;;;1.80;99.90;;;;;;5039970;28;20176;-76
2022/01/15 09:51:33;;;;;;;4.77;1.73;;;1.90;99.90;;;;;;5055170;28;20223;-76
2022/01/15 09:53:59;;;;;;;1.83;1.73;;;1.90;99.90;;;;;;5073201;28;20185;-76
2022/01/15 09:56:25;;;;;;;1.57;1.57;;;1.90;99.90;;;;;;5055417;28;20180;-75
2022/01/15 09:58:52;;;;;;;0.70;0.70;;;1.90;99.90;;;;;;5054020;28;20578;-75
2022/01/15 10:01:18;;;;;;;0.47;0.47;;;1.90;99.90;;;;;;5054966;28;20201;-73
2022/01/15 10:03:44;;;;;;;2.90;2.70;;;1.90;99.90;;;;;;5073068;28;20179;-76
2022/01/15 10:06:09;;;;;;;3.53;3.23;;;1.90;99.90;;;;;;5073198;28;20267;-74
2022/01/15 10:08:35;;;;;;;4.00;3.73;;;2.00;99.90;;;;;;5068279;28;20181;-75
2022/01/15 10:11:05;;;;;;;3.10;2.07;;;2.00;99.90;;;;;;5064221;28;20212;-75
2022/01/15 10:13:32;;;;;;;3.20;2.27;;;2.00;99.90;;;;;;5071895;28;20178;-75
2022/01/15 10:15:57;;;;;;;1.80;1.70;;;2.00;99.90;;;;;;5055266;28;20613;-75
2022/01/15 10:18:25;;;;;;;12.00;5.20;;;2.00;99.90;;;;;;5054930;28;20200;-75
2022/01/15 10:20:53;;;;;;;0.40;0.40;;;2.10;99.90;;;;;;5072594;28;20271;-75
2022/01/15 10:23:20;;;;;;;2.00;1.90;;;2.10;99.90;;;;;;5072568;28;20171;-75
2022/01/15 10:26:19;;;;;;;2.30;1.60;;;2.10;99.90;;;;;;5072895;28;20234;-75
2022/01/15 10:29:03;;;;;;;2.93;2.83;;;2.10;99.90;;;;;;5072759;28;20176;-75
2022/01/15 10:31:31;;;;;;;2.73;2.57;;;2.20;99.90;;;;;;5072357;28;20242;-75
2022/01/15 10:33:59;;;;;;;2.93;2.73;;;2.20;99.90;;;;;;5054348;28;20191;-75
2022/01/15 10:36:32;;;;;;;1.87;1.80;;;2.20;99.90;;;;;;5072457;28;20653;-75
2022/01/15 10:39:18;;;;;;;4.73;3.63;;;2.20;99.90;;;;;;5072126;28;20201;-76
2022/01/15 10:41:44;;;;;;;4.53;4.17;;;2.30;99.90;;;;;;5072247;28;20200;-75
2022/01/15 10:44:33;;;;;;;1.43;1.43;;;2.20;99.90;;;;;;5072142;28;20173;-75
2022/01/15 10:47:08;;;;;;;1.80;1.70;;;2.20;99.90;;;;;;5072414;28;20264;-76
2022/01/15 10:49:35;;;;;;;2.63;2.53;;;2.20;99.90;;;;;;5060591;28;20180;-76
2022/01/15 10:52:21;;;;;;;5.50;3.00;;;2.20;99.90;;;;;;5071611;28;20196;-76
2022/01/15 10:54:57;;;;;;;4.07;3.60;;;2.20;99.90;;;;;;5072251;28;20170;-76
2022/01/15 10:57:25;;;;;;;5.93;3.00;;;2.20;99.90;;;;;;5071957;28;20180;-76
2022/01/15 10:59:59;;;;;;;3.50;3.20;;;2.20;99.90;;;;;;5053739;28;20745;-76
2022/01/15 11:02:25;;;;;;;8.40;2.03;;;2.30;99.90;;;;;;5071535;28;20197;-76
2022/01/15 11:04:51;;;;;;;1.33;1.23;;;2.30;99.90;;;;;;5071967;28;20195;-76
2022/01/15 11:07:17;;;;;;;0.87;0.87;;;2.30;99.90;;;;;;5072201;28;20281;-76
2022/01/15 11:09:44;;;;;;;0.50;0.50;;;2.40;99.90;;;;;;5071483;28;20584;-76
2022/01/15 11:12:11;;;;;;;0.87;0.87;;;2.40;99.90;;;;;;5070770;28;20216;-75
2022/01/15 11:14:37;;;;;;;3.73;1.53;;;2.40;99.90;;;;;;5071656;28;20176;-76
2022/01/15 11:17:04;;;;;;;3.00;2.73;;;2.50;99.90;;;;;;5071645;28;20192;-76
2022/01/15 11:19:34;;;;;;;2.17;1.17;;;2.50;99.90;;;;;;5053608;28;20207;-76
2022/01/15 11:22:01;;;;;;;0.50;0.50;;;2.50;99.90;;;;;;5053348;28;20193;-75
2022/01/15 11:24:26;;;;;;;5.07;3.60;;;2.60;99.90;;;;;;5071617;28;20578;-75
2022/01/15 11:26:55;;;;;;;1.70;1.57;;;2.60;99.90;;;;;;5071967;28;20207;-75
2022/01/15 11:29:21;;;;;;;5.67;1.43;;;2.70;99.90;;;;;;5071595;28;20192;-76
2022/01/15 11:31:57;;;;;;;5.10;2.83;;;2.60;99.90;;;;;;5053274;28;20261;-76
2022/01/15 11:34:24;;;;;;;1.63;1.53;;;2.60;99.90;;;;;;5071041;28;20248;-74
2022/01/15 11:36:50;;;;;;;3.03;2.60;;;2.60;99.90;;;;;;5072358;28;20177;-76
2022/01/15 11:39:28;;;;;;;1.90;1.80;;;2.70;99.90;;;;;;5053471;28;20612;-76
2022/01/15 11:41:55;;;;;;;3.07;2.87;;;2.70;99.90;;;;;;5071331;28;20697;-76
2022/01/15 11:44:29;;;;;;;10.00;6.40;;;2.70;99.90;;;;;;5071431;28;20231;-76
2022/01/15 11:47:10;;;;;;;3.23;3.03;;;2.70;99.90;;;;;;5071611;28;20627;-76
2022/01/15 11:49:41;;;;;;;1.47;1.43;;;2.70;99.90;;;;;;5071361;28;20176;-76
2022/01/15 11:52:09;;;;;;;2.77;2.67;;;2.70;99.90;;;;;;5057113;28;20202;-75
2022/01/15 11:54:36;;;;;;;2.63;2.43;;;2.70;99.90;;;;;;5071547;28;20181;-75
2022/01/15 11:57:04;;;;;;;1.13;1.10;;;2.70;99.90;;;;;;5071403;28;20187;-75
2022/01/15 11:59:29;;;;;;;2.37;2.23;;;2.70;99.90;;;;;;5071292;28;20257;-76
2022/01/15 12:01:55;;;;;;;0.33;0.33;;;2.80;99.90;;;;;;5070728;28;20204;-76
2022/01/15 12:04:24;;;;;;;2.00;1.90;;;2.90;99.90;;;;;;5071126;28;20200;-76
2022/01/15 12:07:05;;;;;;;2.00;1.90;;;2.90;99.90;;;;;;5072181;28;20233;-75
2022/01/15 12:09:48;;;;;;;0.90;0.90;;;2.80;99.90;;;;;;5054470;28;20181;-75
2022/01/15 12:12:20;;;;;;;6.70;4.20;;;2.90;99.90;;;;;;5053332;28;20313;-75
2022/01/15 12:14:59;;;;;;;1.13;1.03;;;2.90;99.90;;;;;;5070950;28;20708;-75
2022/01/15 12:17:31;;;;;;;1.70;1.07;;;2.90;99.90;;;;;;5060367;28;20200;-75
2022/01/15 12:19:59;;;;;;;2.43;2.33;;;2.90;99.90;;;;;;5050684;28;20202;-76
2022/01/15 12:22:34;;;;;;;6.10;2.97;;;2.90;99.90;;;;;;5054075;28;20189;-74
2022/01/15 12:25:02;;;;;;;3.30;3.10;;;2.90;99.90;;;;;;5061002;28;20180;-74
2022/01/15 12:27:30;;;;;;;2.13;1.93;;;2.90;99.90;;;;;;5056986;28;20189;-75
2022/01/15 12:30:06;;;;;;;1.27;1.27;;;2.80;99.90;;;;;;5055513;28;20266;-75
2022/01/15 12:32:39;;;;;;;0.80;0.80;;;2.80;99.90;;;;;;5054424;28;20173;-75
2022/01/15 12:35:10;;;;;;;0.77;0.77;;;2.80;99.90;;;;;;5054601;28;20537;-75
2022/01/15 12:37:36;;;;;;;1.33;1.23;;;2.80;99.90;;;;;;5055206;28;20686;-73
2022/01/15 12:40:06;;;;;;;0.77;0.67;;;2.90;99.90;;;;;;5054900;28;20201;-76
2022/01/15 12:42:33;;;;;;;1.40;1.40;;;2.80;99.90;;;;;;5057222;28;20632;-76
2022/01/15 12:44:59;;;;;;;1.87;1.73;;;2.80;99.90;;;;;;5074886;28;20188;-75
2022/01/15 12:47:25;;;;;;;1.20;0.90;;;2.70;99.90;;;;;;5074847;28;20173;-75
2022/01/15 12:49:54;;;;;;;3.53;3.17;;;2.80;99.90;;;;;;5074521;28;20181;-75
2022/01/15 12:52:23;;;;;;;2.57;2.37;;;2.90;99.90;;;;;;5056265;28;20225;-75
2022/01/15 12:54:51;;;;;;;0.87;0.87;;;2.90;99.90;;;;;;5054897;28;20212;-75
2022/01/15 12:57:55;;;;;;;2.47;2.27;;;2.90;99.90;;;;;;5067983;28;20207;-75
2022/01/15 13:00:23;;;;;;;1.27;1.17;;;2.80;99.90;;;;;;5031705;28;20264;-75
2022/01/15 13:02:54;;;;;;;1.53;1.53;;;2.80;99.90;;;;;;5032028;28;20171;-76
2022/01/15 13:05:20;;;;;;;3.00;2.60;;;2.90;99.90;;;;;;5054175;28;20215;-75
2022/01/15 13:07:58;;;;;;;1.87;1.87;;;2.80;99.90;;;;;;5074318;28;20191;-75
2022/01/15 13:10:37;;;;;;;4.07;2.93;;;2.80;99.90;;;;;;5074095;28;20266;-75
2022/01/15 13:13:03;;;;;;;0.73;0.73;;;2.80;99.90;;;;;;5096259;22;20226;-71
2022/01/15 13:15:30;;;;;;;2.07;1.37;;;2.80;99.90;;;;;;5014891;28;20549;-72
2022/01/15 13:17:56;;;;;;;1.80;1.43;;;2.80;99.90;;;;;;5015322;28;20173;-72
2022/01/15 13:20:31;;;;;;;3.57;3.33;;;2.80;99.90;;;;;;5014532;28;20194;-71
2022/01/15 13:22:58;;;;;;;2.83;1.13;;;2.80;99.90;;;;;;5023140;28;20676;-72
2022/01/15 13:25:25;;;;;;;3.80;2.57;;;2.90;99.90;;;;;;5033904;28;20176;-71
2022/01/15 13:27:53;;;;;;;3.00;2.83;;;2.90;99.90;;;;;;5034296;28;20654;-72